This is the latest recevied weather packets stored in our database for station/object VE3MNX. If no packets are shown the sender has not sent any weather packets the latest 10 day(s).
| Time | Temp. | Humidity | Pressure | Rain* | Wind** | Luminosity | Snow |
|---|---|---|---|---|---|---|---|
| 1778242179 | 8.89° C | 83% | 1010.8 hPa | 0 mm | - | - | - |
| 1778241278 | 8.33° C | 82% | 1010.8 hPa | 0 mm | - | - | - |
| 1778240378 | 7.78° C | 82% | 1010.5 hPa | 0 mm | - | - | - |
| 1778239480 | 7.78° C | 83% | 1010.8 hPa | 0 mm | - | - | - |
| 1778238579 | 6.11° C | 88% | 1010.7 hPa | 0 mm | - | - | - |
| 1778237679 | 5° C | 92% | 1010.5 hPa | 0 mm | - | - | - |
| 1778236778 | 5.56° C | 92% | 1010.5 hPa | 0 mm | - | - | - |
| 1778235879 | 5.56° C | 92% | 1010.5 hPa | 0 mm | - | - | - |
| 1778234978 | 5.56° C | 94% | 1010.5 hPa | 0 mm | - | - | - |
| 1778234079 | 6.11° C | 92% | 1010.5 hPa | 0 mm | - | - | - |
| 1778233179 | 6.67° C | 90% | 1010.2 hPa | 0 mm | - | - | - |
| 1778232279 | 7.22° C | 88% | 1010.2 hPa | 0 mm | - | - | - |
| 1778231378 | 7.22° C | 88% | 1010.2 hPa | 0 mm | - | - | - |
| 1778230479 | 7.78° C | 85% | 1010.2 hPa | 0 mm | - | - | - |
| 1778229579 | 7.78° C | 85% | 1010.5 hPa | 0 mm | - | - | - |
| 1778228679 | 6.67° C | 90% | 1010.5 hPa | 0 mm | - | - | - |
| 1778227778 | 7.22° C | 88% | 1010.5 hPa | 0 mm | - | - | - |
| 1778226878 | 7.78° C | 87% | 1010.2 hPa | 0 mm | - | - | - |
| 1778225979 | 7.78° C | 86% | 1010.2 hPa | 0 mm | - | - | - |
| 1778225078 | 7.78° C | 81% | 1010.5 hPa | 0 mm | - | - | - |
| 1778224178 | 8.33° C | 80% | 1010.2 hPa | 0 mm | - | - | - |
| 1778223278 | 8.33° C | 78% | 1010.2 hPa | 0 mm | - | - | - |
| 1778222378 | 8.33° C | 79% | 1010.3 hPa | 0 mm | - | - | - |
| 1778221479 | 8.89° C | 76% | 1010.4 hPa | 0 mm | - | - | - |
| 1778220578 | 9.44° C | 71% | 1010.2 hPa | 0 mm | - | - | - |
* Rain latest hour (hover to see other rain measurements)
** Current wind speed in m/s (hover to see current wind gust speed)